Angus, Minnesota
Current Conditions -  °F | °C
As of 1:14 PM on Saturday 20 Dec 2014 (Local Time) from KCKN Reporting Station
Haze Haze  
Wind Chill: -8°   Ceiling: 500
Heat Index: -2°   Visibility: 2.5mi
Dew Point: -2°   Wind: 14mph
Humidity: 100%   Direction: 210°SSW
Pressure: 29.99"   Gusts: NA
Location:  48.08°N, 96.7°W
Report Text: KCKN 201914Z AUTO 21012KT 2 1/2SM BR OVC005 M02/M02 A2999 RMK AO2
Loading
Personal Weather Stations






























Interactive Weather Map New forecast layout! Learn more

10-Day Weather Forecast

Advertisements
Track Severe Weather on mobile